Wood Lake, North Dakota
Current Conditions -  °F | °C
As of 10:15 PM on Tuesday 21 Oct 2014 (Local Time) from KDVL Reporting Station
Clear Clear  
Wind Chill: 15°   Ceiling: Unl
Heat Index: 15°   Visibility: 10mi
Dew Point:   Wind: 25mph
Humidity: 55%   Direction: 160°SSE
Pressure: 29.74"   Gusts: 32mph
Location:  47.9248°N, 98.8159°W
Report Text: KDVL 220315Z AUTO 16022G28KT 10SM CLR 15/06 A2974 RMK AO1
Loading
Personal Weather Stations






























Interactive Weather Map
Tropical Storm Tracking
New forecast layout! Learn more

10-Day Weather Forecast

Advertisements
Track Severe Weather on mobile